Time;durP1;ratioP1;P1;durP2;ratioP2;P2;SDS_P1;SDS_P2;PMS_P1;PMS_P2;Temp;Humidity;BMP_temperature;BMP_pressure;BME280_temperature;BME280_humidity;BME280_pressure;Samples;Min_cycle;Max_cycle;Signal;HPM_P1;HPM_P2
2021/05/23 00:00:26;;;;;;;2.67;1.67;;;10.30;99.90;;;;;;5090844;28;20082;-53
2021/05/23 00:02:54;;;;;;;2.00;1.30;;;10.40;99.90;;;;;;5089428;28;20529;-57
2021/05/23 00:05:22;;;;;;;2.53;1.08;;;10.30;99.90;;;;;;5092741;28;20059;-52
2021/05/23 00:08:11;;;;;;;2.55;1.10;;;10.30;99.90;;;;;;5066773;28;20024;-55
2021/05/23 00:10:58;;;;;;;4.88;1.65;;;10.20;99.90;;;;;;5091407;28;20055;-55
2021/05/23 00:13:30;;;;;;;4.68;1.15;;;10.20;99.90;;;;;;5091868;28;20039;-52
2021/05/23 00:16:02;;;;;;;1.70;1.10;;;10.10;99.90;;;;;;5091415;28;20032;-54
2021/05/23 00:18:30;;;;;;;3.15;1.20;;;10.10;99.90;;;;;;5090577;28;20505;-53
2021/05/23 00:20:56;;;;;;;1.17;0.93;;;10.10;99.90;;;;;;5090543;28;20028;-56
2021/05/23 00:23:21;;;;;;;2.67;1.33;;;10.00;99.90;;;;;;5106014;28;20072;-54
2021/05/23 00:25:47;;;;;;;2.45;1.90;;;9.90;99.90;;;;;;5103511;28;20505;-54
2021/05/23 00:28:13;;;;;;;1.90;1.50;;;9.80;99.90;;;;;;5090516;28;20051;-53
2021/05/23 00:30:39;;;;;;;4.40;1.42;;;9.80;99.90;;;;;;5100003;28;20093;-53
2021/05/23 00:33:06;;;;;;;3.72;1.67;;;9.80;99.90;;;;;;5099279;28;20429;-53
2021/05/23 00:35:33;;;;;;;3.58;1.13;;;9.70;99.90;;;;;;5085012;28;20036;-55
2021/05/23 00:37:59;;;;;;;2.63;1.30;;;9.50;99.90;;;;;;5092374;28;20024;-54
2021/05/23 00:40:24;;;;;;;3.15;1.60;;;9.60;99.90;;;;;;5092668;28;20025;-54
2021/05/23 00:42:50;;;;;;;4.57;1.58;;;9.60;99.90;;;;;;5093170;28;20667;-52
2021/05/23 00:45:18;;;;;;;3.38;1.48;;;9.40;99.90;;;;;;5095473;28;20020;-57
2021/05/23 00:47:45;;;;;;;3.10;1.63;;;9.30;99.90;;;;;;5096767;28;20034;-55
2021/05/23 00:50:15;;;;;;;2.15;1.30;;;9.30;99.90;;;;;;5087160;28;20020;-55
2021/05/23 00:52:41;;;;;;;3.03;1.60;;;9.30;99.90;;;;;;5098634;28;20030;-54
2021/05/23 00:55:07;;;;;;;3.88;1.70;;;9.20;99.90;;;;;;5105049;28;20028;-53
2021/05/23 00:57:33;;;;;;;4.57;1.65;;;9.20;99.90;;;;;;5099068;28;20073;-55
2021/05/23 00:59:58;;;;;;;6.15;1.77;;;9.20;99.90;;;;;;5099100;28;20020;-55
2021/05/23 01:02:49;;;;;;;4.90;1.50;;;9.20;99.90;;;;;;5098274;28;20031;-56
2021/05/23 01:05:21;;;;;;;2.65;1.40;;;9.30;99.90;;;;;;5090398;28;20463;-53
2021/05/23 01:07:47;;;;;;;2.08;1.38;;;9.40;99.90;;;;;;5092306;28;20031;-54
2021/05/23 01:10:15;;;;;;;4.55;1.45;;;9.40;99.90;;;;;;5090109;28;20490;-55
2021/05/23 01:13:20;;;;;;;4.63;1.67;;;9.50;99.90;;;;;;5096104;28;20027;-55
2021/05/23 01:15:49;;;;;;;2.47;1.23;;;9.50;99.90;;;;;;5091381;28;20072;-52
2021/05/23 01:18:19;;;;;;;4.05;1.58;;;9.60;99.90;;;;;;5099140;28;20035;-53
2021/05/23 01:20:51;;;;;;;5.72;1.92;;;9.70;99.90;;;;;;5091881;28;20024;-54
2021/05/23 01:23:19;;;;;;;1.63;1.10;;;9.70;99.90;;;;;;5089279;28;20027;-55
2021/05/23 01:25:47;;;;;;;4.68;1.30;;;9.70;99.90;;;;;;5089839;28;20158;-54
2021/05/23 01:28:15;;;;;;;1.92;1.10;;;9.80;99.90;;;;;;5094024;28;20023;-54
2021/05/23 01:30:46;;;;;;;3.47;1.45;;;9.80;99.90;;;;;;5088294;28;20057;-52
2021/05/23 01:33:14;;;;;;;2.35;1.38;;;9.80;99.90;;;;;;5097211;28;20114;-57
2021/05/23 01:35:41;;;;;;;4.00;1.20;;;9.80;99.90;;;;;;5086238;28;20127;-56
2021/05/23 01:38:11;;;;;;;2.90;1.25;;;9.70;99.90;;;;;;5096253;28;20024;-56
2021/05/23 01:40:38;;;;;;;2.97;1.40;;;9.60;99.90;;;;;;5089975;28;20024;-58
2021/05/23 01:43:05;;;;;;;2.25;1.40;;;9.50;99.90;;;;;;5091851;28;20040;-56
2021/05/23 01:45:31;;;;;;;4.28;1.70;;;9.50;99.90;;;;;;5087659;28;20429;-53
2021/05/23 01:47:58;;;;;;;4.07;1.63;;;9.40;99.90;;;;;;5085511;28;20320;-53
2021/05/23 01:50:24;;;;;;;4.32;2.17;;;9.40;99.90;;;;;;5087064;28;20012;-52
2021/05/23 01:52:55;;;;;;;4.25;1.83;;;9.40;99.90;;;;;;5089683;28;20032;-52
2021/05/23 01:55:21;;;;;;;3.58;1.63;;;9.40;99.90;;;;;;5088534;28;20103;-55
2021/05/23 01:57:47;;;;;;;3.92;1.88;;;9.50;99.90;;;;;;5070096;28;20111;-53
2021/05/23 02:00:16;;;;;;;3.92;1.75;;;9.50;99.90;;;;;;5087427;28;20605;-52
2021/05/23 02:02:42;;;;;;;1.92;1.23;;;9.50;99.90;;;;;;5089926;28;20041;-55
2021/05/23 02:05:09;;;;;;;4.82;1.85;;;9.60;99.90;;;;;;5087159;28;20036;-53
2021/05/23 02:07:35;;;;;;;2.75;1.48;;;9.60;99.90;;;;;;5087213;28;20060;-53
2021/05/23 02:10:04;;;;;;;5.65;1.50;;;9.70;99.90;;;;;;5083335;28;20103;-54
2021/05/23 02:12:30;;;;;;;4.03;1.40;;;9.70;99.90;;;;;;5087760;28;20056;-52
2021/05/23 02:14:56;;;;;;;3.40;1.40;;;9.70;99.90;;;;;;5084568;28;20442;-52
2021/05/23 02:17:21;;;;;;;4.47;1.40;;;9.80;99.90;;;;;;5086654;28;20024;-53
2021/05/23 02:19:49;;;;;;;8.88;2.17;;;9.90;99.90;;;;;;5087155;28;20071;-55
2021/05/23 02:22:16;;;;;;;2.67;1.30;;;9.90;99.90;;;;;;5085753;28;20065;-55
2021/05/23 02:24:43;;;;;;;3.35;1.70;;;10.00;99.90;;;;;;5089074;28;20028;-52
2021/05/23 02:27:09;;;;;;;2.15;1.50;;;10.00;99.90;;;;;;5088532;28;20074;-53
2021/05/23 02:29:34;;;;;;;2.08;1.15;;;10.10;99.90;;;;;;5082583;28;20032;-54
2021/05/23 02:32:03;;;;;;;6.78;1.50;;;10.10;99.90;;;;;;5087064;28;20035;-53
2021/05/23 02:34:29;;;;;;;1.83;1.00;;;10.20;99.90;;;;;;5086079;28;20351;-54
2021/05/23 02:36:58;;;;;;;4.68;1.35;;;10.20;99.90;;;;;;5090590;28;20032;-53
2021/05/23 02:39:23;;;;;;;4.88;1.50;;;10.20;99.90;;;;;;5092828;22;20126;-53
2021/05/23 02:41:49;;;;;;;3.92;1.30;;;10.30;99.90;;;;;;5051452;28;20037;-53
2021/05/23 02:44:14;;;;;;;3.67;1.23;;;10.20;99.90;;;;;;5052179;28;20032;-55
2021/05/23 02:46:42;;;;;;;2.65;1.33;;;10.30;99.90;;;;;;5051398;28;20044;-55
2021/05/23 02:49:14;;;;;;;2.90;0.95;;;10.20;99.90;;;;;;5044531;28;20041;-54
2021/05/23 02:51:41;;;;;;;3.05;1.20;;;10.20;99.90;;;;;;5032566;28;20056;-54
2021/05/23 02:54:07;;;;;;;2.85;1.30;;;10.10;99.90;;;;;;5030626;28;20029;-54
2021/05/23 02:56:33;;;;;;;2.90;1.70;;;10.10;99.90;;;;;;5032313;28;20017;-56
2021/05/23 02:58:59;;;;;;;4.15;1.00;;;10.10;99.90;;;;;;5032251;28;20107;-54
2021/05/23 03:01:25;;;;;;;5.55;1.50;;;10.10;99.90;;;;;;5033243;28;20471;-55
2021/05/23 03:03:50;;;;;;;3.80;1.55;;;10.10;99.90;;;;;;5028743;28;20037;-55
2021/05/23 03:06:16;;;;;;;3.55;1.30;;;10.10;99.90;;;;;;5031092;28;20076;-55
2021/05/23 03:08:41;;;;;;;1.58;1.10;;;10.00;99.90;;;;;;5031846;28;20033;-54
2021/05/23 03:11:07;;;;;;;1.42;1.02;;;10.10;99.90;;;;;;5033481;28;20503;-53
2021/05/23 03:13:33;;;;;;;3.38;2.15;;;10.10;99.90;;;;;;5026606;28;20075;-54
2021/05/23 03:15:58;;;;;;;3.70;1.00;;;10.20;99.90;;;;;;5032279;28;20057;-56
2021/05/23 03:18:24;;;;;;;2.85;1.33;;;10.20;99.90;;;;;;5031936;28;20032;-54
2021/05/23 03:20:49;;;;;;;2.13;1.17;;;10.30;99.90;;;;;;5032159;28;20052;-54
2021/05/23 03:23:15;;;;;;;2.90;1.48;;;10.30;99.90;;;;;;5028807;28;20041;-54
2021/05/23 03:25:40;;;;;;;2.58;1.17;;;10.30;99.90;;;;;;5034028;28;20067;-56
2021/05/23 03:28:06;;;;;;;2.53;1.40;;;10.40;99.90;;;;;;5033079;28;20029;-54
2021/05/23 03:30:35;;;;;;;1.52;0.90;;;10.40;99.90;;;;;;5032083;28;20395;-55
2021/05/23 03:33:02;;;;;;;4.30;1.42;;;10.40;99.90;;;;;;5029979;28;20026;-56
2021/05/23 03:35:28;;;;;;;2.58;1.42;;;10.40;99.90;;;;;;5030424;28;20021;-54
2021/05/23 03:37:53;;;;;;;2.97;1.10;;;10.40;99.90;;;;;;5037615;28;20052;-55
2021/05/23 03:40:20;;;;;;;2.17;1.30;;;10.40;99.90;;;;;;5032305;28;20131;-56
2021/05/23 03:42:47;;;;;;;6.70;0.90;;;10.40;99.90;;;;;;5030715;28;20095;-56
2021/05/23 03:45:15;;;;;;;2.05;1.35;;;10.40;99.90;;;;;;5030925;28;20033;-56
2021/05/23 03:47:41;;;;;;;3.17;1.40;;;10.40;99.90;;;;;;5030795;28;20044;-55
2021/05/23 03:50:09;;;;;;;4.85;1.20;;;10.40;99.90;;;;;;5031342;28;20034;-56
2021/05/23 03:52:35;;;;;;;3.85;1.23;;;10.40;99.90;;;;;;5027779;28;20129;-55
2021/05/23 03:55:01;;;;;;;2.90;1.20;;;10.30;99.90;;;;;;5030361;28;20609;-54
2021/05/23 03:57:26;;;;;;;1.65;1.00;;;10.30;99.90;;;;;;5035322;28;20021;-54
2021/05/23 03:59:52;;;;;;;1.50;1.38;;;10.30;99.90;;;;;;5032158;28;20027;-54
2021/05/23 04:02:17;;;;;;;4.55;1.15;;;10.30;99.90;;;;;;5035933;28;20021;-55
2021/05/23 04:04:56;;;;;;;4.15;1.50;;;10.30;99.90;;;;;;5026968;28;20033;-53
2021/05/23 04:07:22;;;;;;;1.75;1.05;;;10.30;99.90;;;;;;5030804;28;20033;-54
2021/05/23 04:09:48;;;;;;;1.70;0.93;;;10.30;99.90;;;;;;5032044;28;20397;-56
2021/05/23 04:12:18;;;;;;;2.22;0.90;;;10.30;99.90;;;;;;5023278;28;20037;-54
2021/05/23 04:14:44;;;;;;;1.35;0.85;;;10.30;99.90;;;;;;5034275;28;20025;-54
2021/05/23 04:17:09;;;;;;;1.52;0.80;;;10.40;99.90;;;;;;5035161;28;20372;-53
2021/05/23 04:19:35;;;;;;;2.65;1.00;;;10.30;99.90;;;;;;5030131;28;20022;-54
2021/05/23 04:22:03;;;;;;;0.68;0.63;;;10.40;99.90;;;;;;5030986;28;20041;-54
2021/05/23 04:24:29;;;;;;;2.45;0.82;;;10.30;99.90;;;;;;5024682;28;20021;-53
2021/05/23 04:26:54;;;;;;;2.67;1.05;;;10.30;99.90;;;;;;5029808;28;20041;-53
2021/05/23 04:29:20;;;;;;;2.22;1.00;;;10.20;99.90;;;;;;5036483;28;20522;-56
2021/05/23 04:31:45;;;;;;;1.00;0.90;;;10.20;99.90;;;;;;5034926;28;20417;-54
2021/05/23 04:34:12;;;;;;;1.83;0.95;;;10.20;99.90;;;;;;5026853;28;20036;-54
2021/05/23 04:36:37;;;;;;;7.35;2.58;;;10.10;99.90;;;;;;5030202;28;20040;-55
2021/05/23 04:39:05;;;;;;;2.97;1.70;;;10.10;99.90;;;;;;5029977;28;20399;-56
2021/05/23 04:41:32;;;;;;;4.32;1.70;;;10.10;99.90;;;;;;5030142;28;20041;-56
2021/05/23 04:43:58;;;;;;;2.78;1.83;;;10.00;99.90;;;;;;5025881;28;20029;-54
2021/05/23 04:46:23;;;;;;;1.92;1.40;;;10.00;99.90;;;;;;5032046;28;20029;-56
2021/05/23 04:48:49;;;;;;;4.13;1.40;;;10.00;99.90;;;;;;5030379;28;20029;-56
2021/05/23 04:51:14;;;;;;;2.78;1.73;;;10.00;99.90;;;;;;5027983;28;20077;-56
2021/05/23 04:53:40;;;;;;;3.80;1.60;;;10.00;99.90;;;;;;5028972;28;20033;-56
2021/05/23 04:56:06;;;;;;;4.50;1.38;;;10.10;99.90;;;;;;5029770;28;20052;-55
2021/05/23 04:58:32;;;;;;;2.40;1.20;;;10.10;99.90;;;;;;5030137;28;20029;-55
2021/05/23 05:00:57;;;;;;;4.75;1.50;;;10.00;99.90;;;;;;5031687;28;20031;-53
2021/05/23 05:03:23;;;;;;;2.40;1.38;;;10.00;99.90;;;;;;5029263;28;20112;-53
2021/05/23 05:05:49;;;;;;;4.00;1.17;;;10.10;99.90;;;;;;5028622;28;20427;-55
2021/05/23 05:08:14;;;;;;;3.67;1.63;;;10.10;99.90;;;;;;5040650;28;20037;-55
2021/05/23 05:10:40;;;;;;;2.85;1.75;;;10.10;99.90;;;;;;5021689;28;20108;-57
2021/05/23 05:13:05;;;;;;;4.28;2.58;;;10.10;99.90;;;;;;5025960;28;20065;-57
2021/05/23 05:15:31;;;;;;;3.25;1.73;;;10.10;99.90;;;;;;5031047;28;20639;-57
2021/05/23 05:17:57;;;;;;;2.90;1.75;;;10.10;99.90;;;;;;5037218;28;20021;-55
2021/05/23 05:20:23;;;;;;;3.78;1.80;;;10.10;99.90;;;;;;5029345;28;20021;-57
2021/05/23 05:22:50;;;;;;;5.60;1.80;;;10.10;99.90;;;;;;5028168;28;20030;-55
2021/05/23 05:25:16;;;;;;;5.65;1.85;;;10.10;99.90;;;;;;5029039;28;20399;-56
2021/05/23 05:27:42;;;;;;;4.95;2.30;;;10.10;99.90;;;;;;5032538;28;20033;-55
2021/05/23 05:30:08;;;;;;;6.88;3.60;;;10.10;99.90;;;;;;5033502;28;20101;-57
2021/05/23 05:32:33;;;;;;;9.30;2.30;;;10.10;99.90;;;;;;5030495;28;20045;-56
2021/05/23 05:34:59;;;;;;;5.18;2.63;;;10.10;99.90;;;;;;5027700;28;20026;-57
2021/05/23 05:37:24;;;;;;;5.15;2.60;;;10.10;99.90;;;;;;5034641;28;20376;-57
2021/05/23 05:39:50;;;;;;;5.82;2.88;;;10.10;99.90;;;;;;5028941;28;20484;-57
2021/05/23 05:42:16;;;;;;;5.68;2.55;;;10.20;99.90;;;;;;5031622;28;20033;-55
2021/05/23 05:44:41;;;;;;;6.30;2.60;;;10.20;99.90;;;;;;5027006;28;20037;-56
2021/05/23 05:47:07;;;;;;;7.38;2.28;;;10.20;99.90;;;;;;5031180;28;20030;-55
2021/05/23 05:49:36;;;;;;;6.65;2.22;;;10.20;99.90;;;;;;5026808;28;20040;-57
2021/05/23 05:52:02;;;;;;;7.10;2.00;;;10.20;99.90;;;;;;5028107;28;20805;-54
2021/05/23 05:54:28;;;;;;;10.45;2.08;;;10.20;99.90;;;;;;5026107;28;20087;-54
2021/05/23 05:56:53;;;;;;;6.07;2.15;;;10.30;99.90;;;;;;5032351;28;20049;-54
2021/05/23 05:59:19;;;;;;;7.32;2.30;;;10.40;99.90;;;;;;5029771;28;20030;-54
2021/05/23 06:01:44;;;;;;;11.90;2.33;;;10.40;99.90;;;;;;5024832;28;20088;-54
2021/05/23 06:04:10;;;;;;;12.82;2.72;;;10.50;99.90;;;;;;5027490;28;20340;-56
2021/05/23 06:06:36;;;;;;;8.65;2.45;;;10.50;99.90;;;;;;5031192;28;20033;-55
2021/05/23 06:09:01;;;;;;;9.02;2.53;;;10.60;99.90;;;;;;5030151;28;20112;-55
2021/05/23 06:11:27;;;;;;;5.03;1.42;;;10.70;99.90;;;;;;5027306;28;20485;-55
2021/05/23 06:13:52;;;;;;;7.88;1.80;;;10.60;99.90;;;;;;5026834;28;20052;-55
2021/05/23 06:16:18;;;;;;;7.20;1.70;;;10.70;99.90;;;;;;5032643;28;20029;-54
2021/05/23 06:18:45;;;;;;;6.18;1.65;;;10.70;99.90;;;;;;5027595;28;20399;-54
2021/05/23 06:21:11;;;;;;;9.43;1.50;;;10.70;99.90;;;;;;5036179;28;20043;-54
2021/05/23 06:23:36;;;;;;;10.10;1.63;;;10.70;99.90;;;;;;5030245;28;20116;-54
2021/05/23 06:26:02;;;;;;;7.80;1.60;;;10.80;99.90;;;;;;5032194;28;20083;-54
2021/05/23 06:28:28;;;;;;;7.65;1.70;;;10.90;99.90;;;;;;5038804;28;20099;-55
2021/05/23 06:30:53;;;;;;;6.45;1.52;;;10.90;99.90;;;;;;5031823;28;20466;-54
2021/05/23 06:33:19;;;;;;;8.07;2.08;;;10.90;99.90;;;;;;5033383;28;20029;-55
2021/05/23 06:35:44;;;;;;;8.18;1.33;;;10.90;99.90;;;;;;5031834;28;20041;-55
2021/05/23 06:38:10;;;;;;;9.90;1.80;;;10.90;99.90;;;;;;5039962;28;20500;-54
2021/05/23 06:40:35;;;;;;;4.78;2.00;;;10.90;99.90;;;;;;5034297;28;20045;-57
2021/05/23 06:43:01;;;;;;;4.50;1.80;;;10.80;99.90;;;;;;5032177;28;20124;-57
2021/05/23 06:45:26;;;;;;;7.28;1.85;;;10.80;99.90;;;;;;5028928;28;20117;-57
2021/05/23 06:47:52;;;;;;;13.75;2.25;;;10.70;99.90;;;;;;5033774;28;20487;-54
2021/05/23 06:50:17;;;;;;;11.35;2.13;;;10.60;99.90;;;;;;5033428;28;20036;-54
2021/05/23 06:52:43;;;;;;;9.45;1.60;;;10.60;99.90;;;;;;5032398;28;20026;-54
2021/05/23 06:55:09;;;;;;;7.22;1.38;;;10.80;99.90;;;;;;5032724;28;20025;-55
2021/05/23 06:57:35;;;;;;;4.45;1.27;;;10.90;99.90;;;;;;5032885;28;20101;-54
2021/05/23 07:00:01;;;;;;;8.75;1.70;;;11.10;99.90;;;;;;5033652;28;20104;-57
2021/05/23 07:02:26;;;;;;;3.90;1.50;;;11.20;99.90;;;;;;5029014;28;20507;-55
2021/05/23 07:04:52;;;;;;;7.85;2.00;;;11.30;99.90;;;;;;5014418;28;20036;-57
2021/05/23 07:07:17;;;;;;;8.13;1.38;;;11.40;99.90;;;;;;5039505;28;20032;-54
2021/05/23 07:09:43;;;;;;;4.88;1.23;;;11.40;99.90;;;;;;5030695;28;20025;-54
2021/05/23 07:12:09;;;;;;;6.80;1.30;;;11.50;99.90;;;;;;5029679;28;20033;-54
2021/05/23 07:14:35;;;;;;;4.57;1.45;;;11.60;99.90;;;;;;5030514;28;20483;-54
2021/05/23 07:17:00;;;;;;;10.23;1.83;;;11.80;99.90;;;;;;5037327;28;20033;-54
2021/05/23 07:19:26;;;;;;;5.00;1.33;;;11.80;99.90;;;;;;5031831;28;20559;-55
2021/05/23 07:21:52;;;;;;;11.85;2.08;;;11.90;99.90;;;;;;5029410;28;20037;-54
2021/05/23 07:24:17;;;;;;;7.03;1.63;;;12.00;99.90;;;;;;5032100;28;20026;-54
2021/05/23 07:26:43;;;;;;;8.10;1.27;;;12.10;99.90;;;;;;5031640;28;20029;-54
2021/05/23 07:29:09;;;;;;;4.50;1.15;;;12.10;99.90;;;;;;5033568;28;20037;-55
2021/05/23 07:31:35;;;;;;;7.38;1.33;;;12.10;99.90;;;;;;5032951;28;20049;-56
2021/05/23 07:34:01;;;;;;;14.30;1.33;;;12.00;99.90;;;;;;5029379;28;20029;-54
2021/05/23 07:36:26;;;;;;;7.85;1.45;;;12.00;99.90;;;;;;5031024;28;20163;-54
2021/05/23 07:38:54;;;;;;;9.52;1.38;;;12.00;99.90;;;;;;5032051;28;20048;-54
2021/05/23 07:41:19;;;;;;;10.00;1.33;;;12.10;99.90;;;;;;5028339;28;20036;-54
2021/05/23 07:43:45;;;;;;;10.23;0.85;;;12.00;99.90;;;;;;5026261;28;20025;-58
2021/05/23 07:46:11;;;;;;;3.22;1.17;;;12.00;99.90;;;;;;5014365;28;20709;-54
2021/05/23 07:48:36;;;;;;;6.60;1.05;;;12.10;99.90;;;;;;5030502;28;20022;-56
2021/05/23 07:51:02;;;;;;;5.07;2.45;;;12.20;99.90;;;;;;5035682;28;20044;-54
2021/05/23 07:53:28;;;;;;;9.32;1.33;;;12.20;99.90;;;;;;5028377;28;20026;-54
2021/05/23 07:55:54;;;;;;;6.53;1.90;;;12.30;99.90;;;;;;5031645;28;20026;-55
2021/05/23 07:58:22;;;;;;;5.97;1.10;;;12.40;99.90;;;;;;5023938;28;20026;-57
2021/05/23 08:00:48;;;;;;;11.23;1.17;;;12.40;99.90;;;;;;5024837;28;20080;-57
2021/05/23 08:03:13;;;;;;;11.77;1.85;;;12.60;99.90;;;;;;5023863;28;20033;-57
2021/05/23 08:05:39;;;;;;;5.10;1.10;;;12.70;99.90;;;;;;5024326;28;20029;-56
2021/05/23 08:08:06;;;;;;;1.95;0.95;;;12.80;99.90;;;;;;5029968;28;20384;-57
2021/05/23 08:10:32;;;;;;;14.00;1.50;;;12.70;99.90;;;;;;5026638;28;20158;-57
2021/05/23 08:12:57;;;;;;;4.50;1.00;;;12.70;99.90;;;;;;5025902;28;20034;-57
2021/05/23 08:15:23;;;;;;;4.50;1.17;;;12.60;99.90;;;;;;5028936;28;20024;-56
2021/05/23 08:17:52;;;;;;;8.30;0.98;;;12.70;99.90;;;;;;5032762;28;20026;-60
2021/05/23 08:20:18;;;;;;;8.05;1.42;;;13.00;99.90;;;;;;5029291;28;20021;-57
2021/05/23 08:22:44;;;;;;;2.85;0.93;;;13.00;99.90;;;;;;5022773;28;20037;-54
2021/05/23 08:25:09;;;;;;;8.48;1.30;;;13.10;99.90;;;;;;5027166;28;20586;-57
2021/05/23 08:27:35;;;;;;;5.32;1.00;;;13.10;99.90;;;;;;5032474;28;20032;-55
2021/05/23 08:30:01;;;;;;;7.00;1.50;;;13.10;99.90;;;;;;5030334;28;20029;-55
2021/05/23 08:32:26;;;;;;;8.57;1.30;;;13.40;99.90;;;;;;5032308;28;20025;-55
2021/05/23 08:34:52;;;;;;;8.55;1.25;;;13.50;99.90;;;;;;5031344;28;20488;-55
2021/05/23 08:37:18;;;;;;;6.32;1.05;;;13.50;99.90;;;;;;5029477;28;20028;-55
2021/05/23 08:39:44;;;;;;;7.80;1.20;;;13.60;99.90;;;;;;5059188;22;20128;-58
2021/05/23 08:42:10;;;;;;;6.53;1.17;;;13.70;99.90;;;;;;5034809;28;20108;-55
2021/05/23 08:44:37;;;;;;;8.30;1.10;;;13.90;99.90;;;;;;5047085;28;20533;-59
2021/05/23 08:47:03;;;;;;;4.50;0.70;;;13.80;99.90;;;;;;5045455;28;20392;-59
2021/05/23 08:49:30;;;;;;;7.47;1.05;;;13.80;99.90;;;;;;5043272;28;20025;-60
2021/05/23 08:51:56;;;;;;;5.47;1.00;;;13.70;99.90;;;;;;5010041;28;20029;-60
2021/05/23 08:54:22;;;;;;;4.13;0.90;;;14.00;99.90;;;;;;5014611;28;20108;-59
2021/05/23 08:56:49;;;;;;;6.15;1.23;;;13.90;99.90;;;;;;5029686;28;20155;-57
2021/05/23 08:59:16;;;;;;;5.10;1.15;;;13.80;99.90;;;;;;5025388;28;20083;-58
2021/05/23 09:01:42;;;;;;;5.53;0.93;;;13.90;99.90;;;;;;5027757;28;20617;-59
2021/05/23 09:04:09;;;;;;;5.57;1.10;;;13.80;99.90;;;;;;5022758;28;20120;-58
2021/05/23 09:06:37;;;;;;;4.10;1.25;;;14.00;99.90;;;;;;5027171;28;20513;-53
2021/05/23 09:09:08;;;;;;;7.32;1.10;;;13.80;99.90;;;;;;5032264;28;20395;-63
2021/05/23 09:11:34;;;;;;;8.38;1.15;;;13.70;99.90;;;;;;5030937;28;20041;-64
2021/05/23 09:14:00;;;;;;;5.47;0.90;;;13.90;99.90;;;;;;5028815;28;20036;-64
2021/05/23 09:16:34;;;;;;;6.82;0.75;;;14.10;99.90;;;;;;5030323;28;20055;-64
2021/05/23 09:19:00;;;;;;;4.82;0.90;;;14.20;99.90;;;;;;5010409;28;20045;-65
2021/05/23 09:21:30;;;;;;;2.25;0.68;;;14.20;99.90;;;;;;5025237;28;20126;-65
2021/05/23 09:23:58;;;;;;;3.13;1.00;;;14.50;99.90;;;;;;5023394;28;20160;-64
2021/05/23 09:26:27;;;;;;;5.30;0.82;;;14.50;99.90;;;;;;5026721;28;20427;-64
2021/05/23 09:28:54;;;;;;;4.38;0.95;;;14.60;99.90;;;;;;5024280;28;20029;-64
2021/05/23 09:31:23;;;;;;;3.50;0.60;;;14.40;99.90;;;;;;5026184;28;20037;-64
2021/05/23 09:33:52;;;;;;;3.92;0.63;;;14.20;99.90;;;;;;5011517;28;20037;-64
2021/05/23 09:36:20;;;;;;;1.95;0.60;;;14.20;99.90;;;;;;5031485;28;20091;-64
2021/05/23 09:38:53;;;;;;;7.47;1.05;;;14.20;99.90;;;;;;5025116;28;20026;-63
2021/05/23 09:41:25;;;;;;;4.53;0.70;;;14.20;99.90;;;;;;5034685;28;20037;-65
2021/05/23 09:44:08;;;;;;;6.60;1.08;;;14.30;99.90;;;;;;5033529;28;20107;-64
2021/05/23 09:46:33;;;;;;;3.40;0.52;;;14.30;99.90;;;;;;5030789;28;20037;-65
2021/05/23 09:48:59;;;;;;;3.17;0.90;;;14.40;99.90;;;;;;5038347;28;20048;-65
2021/05/23 09:51:25;;;;;;;3.45;0.80;;;14.50;99.90;;;;;;5037172;28;20071;-64
2021/05/23 09:54:00;;;;;;;4.25;0.85;;;14.50;99.90;;;;;;5032119;28;20372;-64
2021/05/23 09:56:31;;;;;;;5.38;0.95;;;14.50;99.90;;;;;;5027202;28;20013;-64
2021/05/23 09:58:57;;;;;;;2.65;0.75;;;14.70;99.90;;;;;;5035417;28;20667;-64
2021/05/23 10:01:24;;;;;;;5.95;1.10;;;14.50;99.90;;;;;;5036033;28;20017;-64
2021/05/23 10:03:50;;;;;;;5.18;0.80;;;14.60;99.90;;;;;;5030956;28;20017;-63
2021/05/23 10:06:33;;;;;;;5.82;0.75;;;14.80;99.90;;;;;;5025837;28;20018;-64
2021/05/23 10:09:00;;;;;;;14.15;0.90;;;15.10;99.90;;;;;;5035836;28;20072;-64
2021/05/23 10:11:26;;;;;;;3.97;0.88;;;15.10;99.90;;;;;;5031426;28;20028;-63
2021/05/23 10:13:52;;;;;;;2.70;0.95;;;14.60;99.90;;;;;;5027752;28;20025;-65
2021/05/23 10:16:18;;;;;;;8.35;1.30;;;14.90;99.90;;;;;;5036064;28;20025;-63
2021/05/23 10:18:45;;;;;;;4.13;1.00;;;15.40;99.90;;;;;;5035947;28;20025;-64
2021/05/23 10:21:12;;;;;;;3.72;1.10;;;15.00;99.90;;;;;;5032583;28;20442;-64
2021/05/23 10:23:53;;;;;;;5.07;0.80;;;15.00;99.90;;;;;;5029932;28;20480;-65
2021/05/23 10:26:25;;;;;;;6.18;0.90;;;14.80;99.90;;;;;;5032759;28;20033;-64
2021/05/23 10:28:52;;;;;;;4.50;1.08;;;14.70;99.90;;;;;;4996111;28;20325;-62
2021/05/23 10:31:34;;;;;;;3.65;1.00;;;14.70;99.90;;;;;;5032887;28;20121;-63
2021/05/23 10:34:01;;;;;;;3.53;0.95;;;14.80;99.90;;;;;;5017561;28;20156;-64
2021/05/23 10:36:32;;;;;;;1.73;0.88;;;15.20;99.90;;;;;;5024305;28;20046;-64
2021/05/23 10:39:00;;;;;;;3.90;1.10;;;15.40;99.90;;;;;;5020377;28;20467;-64
2021/05/23 10:41:26;;;;;;;7.25;1.25;;;15.80;99.90;;;;;;5010212;28;20044;-63
2021/05/23 10:43:58;;;;;;;2.67;1.05;;;16.10;99.90;;;;;;5027680;28;20052;-64
2021/05/23 10:46:24;;;;;;;1.13;0.90;;;16.50;99.90;;;;;;5010892;28;20487;-65
2021/05/23 10:48:58;;;;;;;1.48;0.70;;;16.30;99.90;;;;;;5037004;28;20837;-64
2021/05/23 10:51:28;;;;;;;1.42;0.80;;;15.80;99.90;;;;;;5012852;28;20034;-64
2021/05/23 10:53:55;;;;;;;4.90;1.00;;;15.10;99.90;;;;;;5028253;28;20119;-63
2021/05/23 10:56:31;;;;;;;3.25;1.27;;;14.90;99.90;;;;;;5015777;28;20040;-64
2021/05/23 10:59:04;;;;;;;4.03;1.10;;;14.90;99.90;;;;;;5012681;28;20116;-66
2021/05/23 11:01:54;;;;;;;4.72;0.90;;;15.00;99.90;;;;;;5021494;28;20625;-63
2021/05/23 11:04:23;;;;;;;12.05;1.17;;;15.70;99.90;;;;;;5025126;28;20026;-63
2021/05/23 11:06:49;;;;;;;4.20;1.08;;;15.40;99.90;;;;;;5015936;28;20466;-62
2021/05/23 11:09:33;;;;;;;2.10;1.13;;;15.30;99.90;;;;;;5031508;28;20057;-63
2021/05/23 11:12:10;;;;;;;3.17;0.85;;;15.40;99.90;;;;;;5006150;28;20084;-62
2021/05/23 11:14:36;;;;;;;3.25;1.02;;;15.70;99.90;;;;;;5019203;28;20043;-64
2021/05/23 11:17:06;;;;;;;5.18;1.05;;;15.50;99.90;;;;;;4995342;28;20377;-64
2021/05/23 11:19:32;;;;;;;3.10;0.90;;;15.30;99.90;;;;;;4998146;28;20559;-64
2021/05/23 11:22:01;;;;;;;5.78;0.85;;;15.10;99.90;;;;;;4999818;28;20029;-64
2021/05/23 11:24:32;;;;;;;3.90;1.00;;;15.20;99.90;;;;;;5019338;28;20059;-64
2021/05/23 11:27:13;;;;;;;2.88;0.90;;;15.60;99.90;;;;;;5015958;28;20041;-64
2021/05/23 11:29:47;;;;;;;6.20;1.02;;;15.70;99.90;;;;;;5015042;28;20060;-63
2021/05/23 11:32:15;;;;;;;4.32;1.15;;;15.60;99.90;;;;;;5025436;28;20030;-64
2021/05/23 11:34:44;;;;;;;3.40;0.90;;;15.50;99.90;;;;;;5011417;28;20045;-64
2021/05/23 11:37:10;;;;;;;3.38;1.00;;;15.40;99.90;;;;;;5018774;28;20032;-65
2021/05/23 11:39:37;;;;;;;2.90;0.82;;;15.30;99.90;;;;;;5017884;28;20033;-65
2021/05/23 11:42:05;;;;;;;3.28;0.90;;;15.30;99.90;;;;;;5011197;28;20095;-65
2021/05/23 11:44:36;;;;;;;3.72;1.10;;;15.20;99.90;;;;;;5008283;28;20053;-64
2021/05/23 11:47:03;;;;;;;3.83;0.88;;;15.00;99.90;;;;;;5019331;28;20391;-64
2021/05/23 11:49:30;;;;;;;1.85;0.90;;;14.90;99.90;;;;;;5013020;28;20116;-63
2021/05/23 11:52:06;;;;;;;7.18;1.33;;;15.20;99.90;;;;;;5020830;28;20033;-65
2021/05/23 11:54:32;;;;;;;4.28;1.35;;;15.80;99.90;;;;;;5014073;28;20032;-64
2021/05/23 11:56:58;;;;;;;1.17;0.77;;;15.80;99.90;;;;;;5002003;28;20036;-65
2021/05/23 11:59:31;;;;;;;4.78;1.10;;;15.80;99.90;;;;;;5015183;28;20043;-64
2021/05/23 12:02:02;;;;;;;1.95;0.95;;;15.80;99.90;;;;;;5033438;28;20052;-63
2021/05/23 12:04:28;;;;;;;5.35;1.17;;;15.70;99.90;;;;;;5020866;28;20069;-64
2021/05/23 12:06:55;;;;;;;3.45;0.70;;;15.60;99.90;;;;;;5014451;28;20083;-64
2021/05/23 12:09:23;;;;;;;1.90;0.70;;;15.60;99.90;;;;;;5027081;28;20408;-65
2021/05/23 12:11:55;;;;;;;1.40;0.52;;;15.30;99.90;;;;;;4996460;28;20033;-64
2021/05/23 12:14:30;;;;;;;3.80;1.45;;;15.40;99.90;;;;;;5032047;28;20028;-64
2021/05/23 12:17:06;;;;;;;2.40;0.65;;;15.50;99.90;;;;;;5013884;28;20045;-64
2021/05/23 12:19:46;;;;;;;3.05;0.80;;;15.50;99.90;;;;;;5028376;28;20030;-64
2021/05/23 12:22:24;;;;;;;4.75;1.20;;;15.50;99.90;;;;;;5033196;28;20029;-64
2021/05/23 12:24:58;;;;;;;2.58;0.70;;;15.40;99.90;;;;;;5036405;28;20025;-63
2021/05/23 12:27:46;;;;;;;2.03;0.80;;;15.60;99.90;;;;;;5038536;28;20031;-63
2021/05/23 12:30:18;;;;;;;3.00;1.15;;;15.70;99.90;;;;;;5017451;28;20080;-63
2021/05/23 12:32:57;;;;;;;4.22;0.93;;;15.90;99.90;;;;;;5027709;28;20033;-64
2021/05/23 12:35:29;;;;;;;10.27;1.00;;;16.60;99.90;;;;;;4995346;28;20402;-64
2021/05/23 12:38:05;;;;;;;6.35;1.08;;;16.80;99.90;;;;;;5016036;28;20029;-63
2021/05/23 12:40:32;;;;;;;4.13;0.90;;;16.40;99.90;;;;;;5031710;28;20029;-64
2021/05/23 12:43:26;;;;;;;2.28;0.70;;;16.30;99.90;;;;;;5034090;28;20040;-64
2021/05/23 12:46:15;;;;;;;4.97;0.70;;;16.00;99.90;;;;;;5020072;28;20061;-63
2021/05/23 12:48:50;;;;;;;2.05;0.77;;;16.00;99.90;;;;;;5025733;28;20033;-63
2021/05/23 12:51:25;;;;;;;1.98;0.63;;;16.10;99.90;;;;;;5024530;28;20064;-64